Almagrundet, Sweden

5:18 PM CEST on July 26, 2016 (GMT +0200)
Sandhamn Trouville | | Change Station

Elev 10 ft 59.28 °N, 18.93 °E | Updated 6 minutes ago

Light Rain Showers
Light Showers Rain
73.9 °F
Feels Like 74 °F
N
1.2
Wind Variable Wind from South

Today
High -- | Low -- °F
--% Chance of Precip.
Yesterday
High -- | Low -- °F
Precip. -- in
Pressure 29.95 in
Visibility 6.2 miles
Clouds Mostly Cloudy 3000 ft
Mostly Cloudy 5000 ft
Heat Index 74 °F
Dew Point 66 °F
Humidity 81%
Rainfall Not available.
Snow Depth Not available.
4:17 AM 9:21 PM
Waning Gibbous, 54% visible
METAR ESSB 261450Z 27006KT 9999 -SHRA BKN030CB BKN050 20/19 Q1014
Pressure 29.95 in
Visibility 6.2 miles
Clouds Mostly Cloudy 3000 ft
Mostly Cloudy 5000 ft
Heat Index 74 °F
Dew Point 66 °F
Humidity 81%
Rainfall Not available.
Snow Depth Not available.
4:17 AM 9:21 PM
Waning Gibbous, 54% visible
METAR ESSB 261450Z 27006KT 9999 -SHRA BKN030CB BKN050 20/19 Q1014

10-Day Weather Forecast

×

Almanac

Astronomy

Jul. 26, 2016 Rise Set
Actual Time
Civil Twilight
Nautical Twilight
Astronomical Twilight
Moon
Length of Visible Light
Length of Day
Tomorrow will be .
, % of the Moon is Illuminated

Today's Extremes

Country Highs Country Lows

Community

WunderPhotos

Upload Photos

1,927,612 photos uploaded!

WunderBlog® & News

Nearby

Air Quality

  Air Quality AQ Index Pollutant
Not available.

Snow Depth

Station Depth Elevation

Earthquake Activity

City Distance Mag. Time & Date
Minimum magnitude displayed is 2.5.

Coastal Water Temperatures

Place Temperature

Stations

Nearby Weather Stations

Station Location Temp. Windchill Dew Point Humidity Wind Precip. Elev Updated Type